Time;durP1;ratioP1;P1;durP2;ratioP2;P2;SDS_P1;SDS_P2;PMS_P1;PMS_P2;Temp;Humidity;BMP_temperature;BMP_pressure;BME280_temperature;BME280_humidity;BME280_pressure;Samples;Min_cycle;Max_cycle;Signal;HPM_P1;HPM_P2
2023/09/13 00:02:22;;;;;;;0.20;0.20;;;19.10;1.00;;;;;;4887184;29;20192;-70
2023/09/13 00:04:49;;;;;;;0.20;0.20;;;18.80;99.90;;;;;;4888681;29;20210;-67
2023/09/13 00:07:18;;;;;;;0.10;0.10;;;18.90;99.90;;;;;;4877923;29;20602;-69
2023/09/13 00:09:45;;;;;;;0.20;0.20;;;18.80;99.90;;;;;;4877553;29;20214;-68
2023/09/13 00:12:12;;;;;;;0.30;0.30;;;18.80;99.90;;;;;;4865538;29;20575;-68
2023/09/13 00:14:39;;;;;;;0.15;0.15;;;18.90;99.90;;;;;;4867135;29;20369;-68
2023/09/13 00:17:06;;;;;;;0.20;0.20;;;18.90;99.90;;;;;;4877648;29;20294;-69
2023/09/13 00:19:37;;;;;;;0.20;0.20;;;18.80;99.90;;;;;;4876622;29;20217;-71
2023/09/13 00:22:04;;;;;;;0.20;0.20;;;18.90;99.90;;;;;;4882211;29;20248;-69
2023/09/13 00:24:31;;;;;;;0.20;0.20;;;19.00;1.00;;;;;;4876989;29;20607;-70
2023/09/13 00:26:58;;;;;;;0.10;0.10;;;19.00;1.00;;;;;;4879440;29;20209;-69
2023/09/13 00:29:26;;;;;;;0.20;0.20;;;18.90;99.90;;;;;;4877088;29;20288;-69
2023/09/13 00:31:54;;;;;;;0.10;0.10;;;18.90;99.90;;;;;;4878642;29;20642;-70
2023/09/13 00:34:21;;;;;;;0.20;0.20;;;18.80;85.00;;;;;;4873008;29;20214;-70
2023/09/13 00:36:48;;;;;;;0.20;0.20;;;18.70;1.00;;;;;;4882796;29;20200;-70
2023/09/13 00:39:15;;;;;;;0.20;0.20;;;18.60;1.00;;;;;;4870089;29;20228;-70
2023/09/13 00:41:42;;;;;;;0.20;0.20;;;18.70;95.20;;;;;;4871273;29;20213;-71
2023/09/13 00:44:31;;;;;;;0.20;0.20;;;18.70;1.00;;;;;;4885977;29;20205;-72
2023/09/13 00:47:03;;;;;;;2.40;2.28;;;18.60;1.00;;;;;;4867803;29;20229;-72
2023/09/13 00:49:30;;;;;;;0.20;0.20;;;18.60;36.40;;;;;;4877250;29;20220;-65
2023/09/13 00:51:58;;;;;;;0.20;0.20;;;18.70;99.90;;;;;;4873825;29;21334;-67
2023/09/13 00:54:25;;;;;;;0.20;0.20;;;18.80;99.90;;;;;;4877415;29;20678;-67
2023/09/13 00:56:52;;;;;;;0.10;0.10;;;18.90;99.90;;;;;;4878247;29;20274;-67
2023/09/13 00:59:21;;;;;;;0.20;0.20;;;18.90;99.90;;;;;;4865135;29;20270;-67
2023/09/13 01:01:48;;;;;;;0.20;0.20;;;19.00;99.90;;;;;;4880148;29;20190;-68
2023/09/13 01:04:17;;;;;;;0.20;0.20;;;18.80;1.00;;;;;;4882428;29;20249;-67
2023/09/13 01:06:44;;;;;;;0.20;0.20;;;18.70;1.00;;;;;;4869858;29;20285;-67
2023/09/13 01:09:14;;;;;;;0.20;0.20;;;18.80;1.00;;;;;;4874564;29;20232;-67
2023/09/13 01:11:40;;;;;;;0.15;0.15;;;18.90;99.90;;;;;;4862060;29;20308;-71
2023/09/13 01:14:07;;;;;;;0.20;0.20;;;18.80;5.40;;;;;;4883158;29;20377;-65
2023/09/13 01:16:47;;;;;;;0.10;0.10;;;18.90;1.00;;;;;;4860417;29;20202;-65
2023/09/13 01:19:44;;;;;;;0.10;0.10;;;18.90;1.00;;;;;;4870763;29;20213;-64
2023/09/13 01:22:32;;;;;;;0.10;0.10;;;18.80;1.00;;;;;;4877916;29;20216;-67
2023/09/13 01:25:31;;;;;;;0.20;0.20;;;18.80;1.00;;;;;;4860756;29;20205;-67
2023/09/13 01:28:10;;;;;;;0.20;0.20;;;18.80;1.00;;;;;;4876698;29;20773;-64
2023/09/13 01:30:39;;;;;;;0.20;0.20;;;18.80;1.00;;;;;;4874611;29;20200;-65
2023/09/13 01:33:06;;;;;;;0.30;0.30;;;18.80;1.00;;;;;;4876165;29;20349;-64
2023/09/13 01:35:33;;;;;;;0.30;0.30;;;18.80;99.90;;;;;;4848479;29;20296;-65
2023/09/13 01:38:01;;;;;;;0.20;0.20;;;18.90;99.90;;;;;;4875527;29;20230;-74
2023/09/13 01:40:32;;;;;;;0.20;0.20;;;18.90;99.90;;;;;;4842008;29;20198;-65
2023/09/13 01:43:01;;;;;;;0.20;0.20;;;18.80;99.90;;;;;;4873583;29;20253;-63
2023/09/13 01:45:32;;;;;;;0.20;0.20;;;18.90;99.90;;;;;;4877235;29;20663;-65
2023/09/13 01:48:01;;;;;;;0.20;0.20;;;18.90;99.90;;;;;;4874727;29;20670;-64
2023/09/13 01:50:30;;;;;;;0.20;0.20;;;18.90;99.90;;;;;;4871959;29;20205;-66
2023/09/13 01:53:00;;;;;;;0.20;0.20;;;19.00;99.90;;;;;;4874021;29;20212;-66
2023/09/13 01:55:27;;;;;;;0.20;0.20;;;18.90;1.00;;;;;;4870705;29;20202;-69
2023/09/13 01:57:53;;;;;;;0.20;0.20;;;18.90;1.00;;;;;;4866892;29;20714;-68
2023/09/13 02:04:20;;;;;;;0.20;0.20;;;19.00;34.00;;;;;;4860314;29;20549;-68
2023/09/13 02:06:48;;;;;;;0.20;0.20;;;19.00;1.00;;;;;;4865596;29;20319;-67
2023/09/13 02:09:16;;;;;;;0.22;0.22;;;19.00;1.00;;;;;;4874516;29;20216;-66
2023/09/13 02:11:43;;;;;;;0.20;0.20;;;19.00;99.90;;;;;;4875612;29;20213;-64
2023/09/13 02:14:13;;;;;;;0.20;0.20;;;19.00;99.90;;;;;;4889224;29;20238;-64
2023/09/13 02:16:41;;;;;;;0.20;0.20;;;19.00;99.90;;;;;;4875634;29;20204;-68
2023/09/13 02:19:09;;;;;;;0.20;0.20;;;19.00;1.00;;;;;;4874985;29;20210;-64
2023/09/13 02:21:36;;;;;;;0.20;0.20;;;18.90;1.00;;;;;;4874781;29;20641;-64
2023/09/13 02:24:05;;;;;;;0.20;0.20;;;18.80;99.90;;;;;;4877451;29;20213;-64
2023/09/13 02:26:32;;;;;;;0.13;0.13;;;18.60;85.80;;;;;;4858179;29;20245;-65
2023/09/13 02:28:59;;;;;;;0.20;0.20;;;18.50;99.90;;;;;;4859442;29;20667;-65
2023/09/13 02:31:28;;;;;;;0.20;0.20;;;18.40;99.90;;;;;;4855221;29;20205;-63
2023/09/13 02:33:55;;;;;;;0.20;0.20;;;18.40;99.90;;;;;;4877407;29;20213;-68
2023/09/13 02:36:22;;;;;;;0.20;0.20;;;18.40;99.90;;;;;;4872933;29;20273;-63
2023/09/13 02:38:52;;;;;;;0.20;0.20;;;18.40;99.90;;;;;;4862624;29;20256;-64
2023/09/13 02:41:19;;;;;;;0.20;0.20;;;18.50;1.00;;;;;;4869196;29;20348;-63
2023/09/13 02:43:46;;;;;;;0.10;0.10;;;18.60;1.00;;;;;;4859210;29;20229;-66
2023/09/13 02:46:14;;;;;;;0.20;0.20;;;18.80;1.00;;;;;;4856769;29;20197;-64
2023/09/13 02:48:41;;;;;;;0.20;0.20;;;18.80;1.00;;;;;;4865979;29;20508;-65
2023/09/13 02:51:13;;;;;;;0.20;0.20;;;18.80;1.00;;;;;;4873936;29;20273;-64
2023/09/13 02:53:40;;;;;;;0.20;0.20;;;19.00;1.00;;;;;;4866212;29;20689;-66
2023/09/13 02:56:08;;;;;;;0.20;0.20;;;19.00;1.00;;;;;;4848862;29;20202;-67
2023/09/13 02:58:35;;;;;;;0.10;0.10;;;18.90;99.90;;;;;;4870485;29;20341;-67
2023/09/13 03:01:03;;;;;;;0.10;0.10;;;;;;;;;;4858867;29;20740;-63
2023/09/13 03:03:32;;;;;;;0.20;0.20;;;18.80;1.00;;;;;;4844895;29;22589;-70
2023/09/13 03:06:18;;;;;;;1.50;1.45;;;18.40;99.90;;;;;;4867079;29;20194;-67
2023/09/13 03:08:45;;;;;;;0.47;0.47;;;18.40;72.50;;;;;;4856384;29;20201;-67
2023/09/13 03:11:16;;;;;;;1.20;1.20;;;18.50;66.40;;;;;;4852679;29;20233;-66
2023/09/13 03:13:44;;;;;;;0.10;0.10;;;18.60;1.00;;;;;;4865221;29;20510;-66
2023/09/13 03:16:18;;;;;;;0.17;0.17;;;18.80;1.00;;;;;;4898865;29;20633;-65
2023/09/13 03:18:46;;;;;;;0.20;0.20;;;18.90;82.50;;;;;;4873310;29;20229;-65
2023/09/13 03:21:18;;;;;;;0.10;0.10;;;19.20;99.90;;;;;;4872069;29;20271;-65
2023/09/13 03:23:50;;;;;;;0.20;0.20;;;19.30;1.00;;;;;;4869925;29;20236;-65
2023/09/13 03:26:20;;;;;;;0.10;0.10;;;19.00;1.00;;;;;;4872833;29;20304;-66
2023/09/13 03:28:49;;;;;;;0.10;0.10;;;19.40;99.90;;;;;;4868559;29;20201;-65
2023/09/13 03:31:18;;;;;;;0.17;0.17;;;19.70;1.00;;;;;;4873855;29;20210;-65
2023/09/13 03:33:47;;;;;;;0.20;0.20;;;19.50;1.00;;;;;;4875134;29;20206;-66
2023/09/13 03:36:16;;;;;;;0.20;0.20;;;19.60;1.00;;;;;;4861394;29;20604;-66
2023/09/13 03:38:47;;;;;;;0.20;0.20;;;19.30;98.10;;;;;;4876778;29;20233;-66
2023/09/13 03:41:18;;;;;;;0.20;0.20;;;19.30;1.00;;;;;;4861157;29;20694;-66
2023/09/13 03:43:46;;;;;;;0.20;0.20;;;19.20;99.90;;;;;;4881966;29;20262;-66
2023/09/13 03:46:13;;;;;;;0.20;0.20;;;19.10;99.90;;;;;;4876976;29;20198;-66
2023/09/13 03:48:41;;;;;;;0.20;0.20;;;19.20;1.00;;;;;;4879623;29;20631;-66
2023/09/13 03:51:10;;;;;;;0.20;0.20;;;19.20;1.00;;;;;;4876688;29;20229;-63
2023/09/13 03:53:37;;;;;;;0.20;0.20;;;18.70;1.00;;;;;;4880884;29;20198;-70
2023/09/13 03:56:05;;;;;;;0.20;0.20;;;18.70;1.00;;;;;;4875659;29;20213;-66
2023/09/13 03:58:36;;;;;;;0.20;0.20;;;18.80;8.40;;;;;;4892061;29;20214;-66
2023/09/13 04:01:04;;;;;;;0.20;0.20;;;18.80;57.70;;;;;;4876487;29;20260;-66
2023/09/13 04:03:32;;;;;;;0.10;0.10;;;19.00;99.90;;;;;;4879979;29;20194;-65
2023/09/13 04:06:00;;;;;;;0.30;0.30;;;19.20;99.90;;;;;;4878995;29;20252;-66
2023/09/13 04:08:28;;;;;;;0.20;0.20;;;19.20;99.90;;;;;;4878598;29;20866;-66
2023/09/13 04:10:56;;;;;;;0.20;0.20;;;19.40;99.90;;;;;;4876878;29;20246;-63
2023/09/13 04:13:23;;;;;;;0.20;0.20;;;19.40;99.90;;;;;;4870225;29;20741;-63
2023/09/13 04:15:51;;;;;;;0.20;0.20;;;19.30;99.90;;;;;;4872210;29;20278;-64
2023/09/13 04:18:28;;;;;;;0.20;0.20;;;19.40;99.90;;;;;;4850531;29;20222;-67
2023/09/13 04:20:56;;;;;;;0.20;0.20;;;19.50;99.90;;;;;;4859043;29;20251;-67
2023/09/13 04:23:23;;;;;;;0.20;0.20;;;19.20;99.90;;;;;;4859370;29;20632;-67
2023/09/13 04:25:50;;;;;;;0.28;0.28;;;19.00;1.00;;;;;;4857620;29;20635;-67
2023/09/13 04:28:17;;;;;;;0.20;0.20;;;18.90;1.00;;;;;;4849669;29;20203;-66
2023/09/13 04:30:45;;;;;;;0.20;0.20;;;18.80;1.00;;;;;;4847076;29;20717;-66
2023/09/13 04:33:12;;;;;;;0.20;0.20;;;18.70;1.00;;;;;;4827048;29;20325;-66
2023/09/13 04:35:39;;;;;;;0.20;0.20;;;18.60;1.00;;;;;;4854628;29;20278;-66
2023/09/13 04:38:06;;;;;;;0.20;0.20;;;18.50;1.00;;;;;;4862279;29;20266;-66
2023/09/13 04:40:34;;;;;;;0.30;0.30;;;18.50;1.00;;;;;;4873054;29;20210;-62
2023/09/13 04:43:04;;;;;;;0.32;0.32;;;18.40;1.00;;;;;;4848468;29;20749;-65
2023/09/13 04:45:35;;;;;;;0.20;0.20;;;18.30;1.00;;;;;;4840421;29;20214;-67
2023/09/13 04:48:03;;;;;;;0.10;0.10;;;18.20;1.00;;;;;;4858636;29;20248;-66
2023/09/13 04:50:30;;;;;;;0.20;0.20;;;18.30;1.00;;;;;;4844458;29;20259;-66
2023/09/13 04:52:57;;;;;;;0.20;0.20;;;18.40;1.00;;;;;;4853863;29;20210;-63
2023/09/13 04:55:26;;;;;;;0.10;0.10;;;18.50;1.00;;;;;;4846812;29;20207;-63
2023/09/13 04:57:54;;;;;;;0.20;0.20;;;18.70;1.00;;;;;;4858428;29;20214;-63
2023/09/13 05:00:21;;;;;;;0.20;0.20;;;18.50;1.00;;;;;;4867723;29;20207;-69
2023/09/13 05:02:48;;;;;;;0.15;0.15;;;18.60;1.00;;;;;;4843066;29;20591;-63
2023/09/13 05:05:15;;;;;;;0.10;0.10;;;18.80;1.00;;;;;;4841404;29;20206;-63
2023/09/13 05:07:42;;;;;;;0.20;0.20;;;18.60;1.00;;;;;;4860874;29;20194;-63
2023/09/13 05:10:09;;;;;;;0.10;0.10;;;18.70;1.00;;;;;;4854474;29;20195;-64
2023/09/13 05:12:36;;;;;;;0.10;0.10;;;18.90;1.00;;;;;;4856215;29;20228;-63
2023/09/13 05:15:04;;;;;;;0.15;0.15;;;18.80;1.00;;;;;;4873607;29;20535;-65
2023/09/13 05:17:31;;;;;;;0.10;0.10;;;18.80;1.00;;;;;;4878009;29;20202;-63
2023/09/13 05:19:58;;;;;;;0.20;0.20;;;18.70;1.00;;;;;;4878665;29;20213;-66
2023/09/13 05:22:32;;;;;;;0.20;0.20;;;18.80;1.00;;;;;;4882054;29;20189;-64
2023/09/13 05:25:03;;;;;;;0.20;0.20;;;18.60;1.00;;;;;;4888192;29;20285;-68
2023/09/13 05:27:33;;;;;;;0.30;0.30;;;18.80;1.00;;;;;;4864952;29;20233;-66
2023/09/13 05:30:02;;;;;;;0.20;0.20;;;18.90;12.20;;;;;;4862551;29;20210;-67
2023/09/13 05:32:29;;;;;;;0.20;0.20;;;18.80;35.80;;;;;;4876607;29;20725;-70
2023/09/13 05:34:57;;;;;;;0.20;0.20;;;18.80;1.00;;;;;;4875950;29;20284;-63
2023/09/13 05:37:24;;;;;;;0.20;0.20;;;18.80;20.00;;;;;;4873277;29;20244;-67
2023/09/13 05:39:51;;;;;;;0.20;0.20;;;19.30;42.90;;;;;;4870443;29;20225;-63
2023/09/13 05:42:18;;;;;;;0.20;0.20;;;19.00;7.90;;;;;;4879223;29;20769;-62
2023/09/13 05:44:45;;;;;;;0.20;0.20;;;19.20;3.60;;;;;;4867955;29;20234;-67
2023/09/13 05:47:12;;;;;;;0.20;0.20;;;19.00;1.00;;;;;;4875098;29;20194;-71
2023/09/13 05:49:47;;;;;;;0.20;0.20;;;19.00;1.00;;;;;;4862881;29;20236;-66
2023/09/13 05:52:30;;;;;;;0.20;0.20;;;19.00;1.00;;;;;;4883744;29;20200;-66
2023/09/13 05:54:57;;;;;;;0.20;0.20;;;19.40;1.00;;;;;;4873922;29;20284;-66
2023/09/13 05:57:26;;;;;;;0.22;0.22;;;19.40;1.00;;;;;;4870183;29;20237;-66
2023/09/13 05:59:53;;;;;;;0.90;0.90;;;19.50;99.90;;;;;;4875360;29;20245;-66
2023/09/13 06:02:20;;;;;;;0.20;0.20;;;19.70;1.00;;;;;;4875929;29;20668;-66
2023/09/13 06:04:47;;;;;;;0.20;0.20;;;20.10;99.90;;;;;;4871895;29;20257;-66
2023/09/13 06:07:16;;;;;;;0.20;0.20;;;20.60;99.90;;;;;;4853686;29;20275;-64
2023/09/13 06:09:43;;;;;;;0.20;0.20;;;21.20;38.30;;;;;;4852128;29;20698;-64
2023/09/13 06:12:11;;;;;;;0.20;0.20;;;21.40;99.90;;;;;;4870862;29;20202;-65
2023/09/13 06:14:37;;;;;;;0.20;0.20;;;21.30;1.00;;;;;;4869594;29;20293;-64
2023/09/13 06:17:04;;;;;;;0.20;0.20;;;21.30;1.00;;;;;;4873293;29;20209;-64
2023/09/13 06:19:32;;;;;;;0.20;0.20;;;21.00;1.00;;;;;;4865303;29;20635;-66
2023/09/13 06:21:58;;;;;;;0.30;0.30;;;20.80;1.00;;;;;;4859135;29;20206;-66
2023/09/13 06:24:26;;;;;;;0.20;0.20;;;20.80;1.00;;;;;;4860943;29;20197;-66
2023/09/13 06:26:54;;;;;;;0.20;0.20;;;20.70;1.00;;;;;;4875599;29;20618;-66
2023/09/13 06:29:21;;;;;;;0.10;0.10;;;20.70;1.00;;;;;;4876850;29;20522;-66
2023/09/13 06:31:49;;;;;;;0.20;0.20;;;20.60;1.00;;;;;;4869677;29;20307;-65
2023/09/13 06:34:32;;;;;;;0.20;0.20;;;20.60;1.00;;;;;;4874878;29;20628;-65
2023/09/13 06:37:00;;;;;;;0.20;0.20;;;20.70;1.00;;;;;;4872964;29;20285;-66
2023/09/13 06:39:28;;;;;;;0.20;0.20;;;20.50;1.00;;;;;;4858513;29;20582;-64
2023/09/13 06:41:56;;;;;;;0.20;0.20;;;20.50;1.00;;;;;;4871843;29;20300;-64
2023/09/13 06:44:23;;;;;;;0.20;0.20;;;20.60;1.00;;;;;;4856207;29;20309;-63
2023/09/13 06:46:53;;;;;;;0.20;0.20;;;20.50;1.00;;;;;;4857319;29;20224;-63
2023/09/13 06:49:30;;;;;;;0.20;0.20;;;20.60;1.00;;;;;;4858967;29;20663;-64
2023/09/13 06:51:58;;;;;;;0.20;0.20;;;20.80;1.00;;;;;;4872778;29;20229;-63
2023/09/13 06:54:28;;;;;;;0.20;0.20;;;21.10;1.00;;;;;;4856453;29;20204;-63
2023/09/13 06:56:58;;;;;;;0.20;0.20;;;21.80;99.90;;;;;;4869773;29;20213;-63
2023/09/13 06:59:28;;;;;;;0.20;0.20;;;21.60;99.90;;;;;;4843056;29;20341;-62
2023/09/13 07:01:59;;;;;;;0.22;0.22;;;21.60;99.90;;;;;;4845469;29;20206;-68
2023/09/13 07:04:51;;;;;;;0.13;0.13;;;21.60;99.90;;;;;;4873408;29;20239;-71
2023/09/13 07:07:50;;;;;;;0.10;0.10;;;22.10;99.90;;;;;;4865387;29;20203;-70
2023/09/13 07:10:17;;;;;;;0.17;0.17;;;24.00;99.90;;;;;;4879430;29;20205;-67
2023/09/13 07:12:44;;;;;;;0.20;0.20;;;23.90;99.90;;;;;;4885287;29;20205;-66
2023/09/13 07:15:11;;;;;;;0.20;0.20;;;23.30;99.90;;;;;;4856591;29;20277;-66
2023/09/13 07:17:38;;;;;;;0.20;0.20;;;23.80;99.90;;;;;;4864120;29;20262;-66
2023/09/13 07:20:06;;;;;;;0.20;0.20;;;24.10;99.90;;;;;;4883499;29;20288;-70
2023/09/13 07:22:33;;;;;;;0.30;0.30;;;24.00;99.90;;;;;;4865198;29;20276;-71
2023/09/13 07:25:00;;;;;;;0.20;0.20;;;23.30;99.90;;;;;;4875050;29;20197;-65
2023/09/13 07:27:27;;;;;;;0.20;0.20;;;22.90;99.90;;;;;;4863605;29;20202;-65
2023/09/13 07:29:54;;;;;;;0.20;0.20;;;22.70;99.90;;;;;;4881972;29;20202;-65
2023/09/13 07:32:22;;;;;;;0.20;0.20;;;22.50;99.90;;;;;;4882804;29;20783;-65
2023/09/13 07:34:51;;;;;;;0.20;0.20;;;22.40;99.90;;;;;;4867162;29;20208;-65
2023/09/13 07:37:19;;;;;;;0.30;0.30;;;22.40;99.90;;;;;;4876162;29;20206;-65
2023/09/13 07:39:46;;;;;;;0.30;0.30;;;22.20;99.90;;;;;;4875231;29;20647;-65
2023/09/13 07:42:13;;;;;;;0.20;0.20;;;22.10;99.90;;;;;;4873260;29;20718;-70
2023/09/13 07:44:40;;;;;;;0.30;0.30;;;21.70;99.90;;;;;;4881448;29;20345;-64
2023/09/13 07:47:06;;;;;;;0.30;0.30;;;21.50;99.90;;;;;;4877250;29;20206;-64
2023/09/13 07:49:33;;;;;;;1.00;0.75;;;21.80;99.90;;;;;;4877788;29;20205;-68
2023/09/13 07:52:00;;;;;;;0.30;0.30;;;21.90;99.90;;;;;;4872962;29;20218;-64
2023/09/13 07:54:29;;;;;;;0.30;0.30;;;22.20;99.90;;;;;;4874875;29;20197;-66
2023/09/13 07:56:56;;;;;;;0.20;0.20;;;22.50;99.90;;;;;;4879728;29;20195;-64
2023/09/13 07:59:23;;;;;;;0.30;0.30;;;22.60;99.90;;;;;;4872472;29;20556;-66
2023/09/13 08:01:51;;;;;;;0.35;0.35;;;23.10;99.90;;;;;;4873650;29;20270;-65
2023/09/13 08:04:19;;;;;;;2.28;2.17;;;23.90;99.90;;;;;;4876382;29;20288;-66
2023/09/13 08:06:46;;;;;;;0.20;0.20;;;24.30;99.90;;;;;;4874253;29;20635;-66
2023/09/13 08:09:16;;;;;;;0.30;0.30;;;25.00;99.90;;;;;;4874495;29;20197;-67
2023/09/13 08:11:46;;;;;;;0.30;0.30;;;24.50;99.90;;;;;;4862446;29;20619;-66
2023/09/13 08:14:13;;;;;;;0.20;0.20;;;23.60;99.90;;;;;;4875978;29;20248;-67
2023/09/13 08:16:41;;;;;;;0.32;0.32;;;23.00;99.90;;;;;;4866525;29;20206;-64
2023/09/13 08:19:08;;;;;;;0.20;0.20;;;22.50;99.90;;;;;;4876293;29;20698;-64
2023/09/13 08:21:35;;;;;;;0.20;0.20;;;22.30;99.90;;;;;;4874362;29;20204;-63
2023/09/13 08:24:03;;;;;;;0.20;0.20;;;22.10;99.90;;;;;;4884927;29;20679;-64
2023/09/13 08:26:31;;;;;;;0.20;0.20;;;22.20;99.90;;;;;;4864312;29;20268;-65
2023/09/13 08:28:58;;;;;;;0.20;0.20;;;22.20;99.90;;;;;;4879205;29;20217;-63
2023/09/13 08:31:25;;;;;;;0.20;0.20;;;22.40;99.90;;;;;;4858669;29;20217;-65
2023/09/13 08:33:53;;;;;;;0.20;0.20;;;23.20;99.90;;;;;;4865868;29;20702;-68
2023/09/13 08:36:20;;;;;;;0.20;0.20;;;23.50;99.90;;;;;;4888952;29;20205;-65
2023/09/13 08:38:47;;;;;;;0.30;0.30;;;24.90;99.90;;;;;;4863310;29;20193;-64
2023/09/13 08:41:17;;;;;;;0.40;0.40;;;27.20;99.90;;;;;;4868905;29;20278;-64
2023/09/13 08:43:45;;;;;;;0.40;0.40;;;27.20;99.90;;;;;;4876222;29;20262;-64
2023/09/13 08:46:14;;;;;;;0.40;0.40;;;27.60;99.90;;;;;;4878723;29;20201;-65
2023/09/13 08:48:42;;;;;;;0.50;0.50;;;29.60;99.90;;;;;;4876289;29;20324;-66
2023/09/13 08:51:12;;;;;;;0.50;0.50;;;30.30;99.90;;;;;;4884688;29;20832;-66
2023/09/13 08:53:40;;;;;;;0.50;0.50;;;28.00;99.90;;;;;;4876181;29;20745;-65
2023/09/13 08:56:08;;;;;;;0.60;0.60;;;27.30;99.90;;;;;;4858907;29;20229;-66
2023/09/13 08:58:36;;;;;;;0.60;0.60;;;26.90;99.90;;;;;;4875298;29;20395;-66
2023/09/13 09:01:06;;;;;;;0.60;0.60;;;26.30;99.90;;;;;;4866625;29;20236;-66
2023/09/13 09:03:34;;;;;;;0.55;0.55;;;25.20;99.90;;;;;;4873451;29;20603;-66
2023/09/13 09:06:05;;;;;;;0.60;0.60;;;24.70;99.90;;;;;;4877231;29;20256;-65
2023/09/13 09:08:37;;;;;;;0.50;0.50;;;24.90;99.90;;;;;;4859253;29;20193;-65
2023/09/13 09:11:05;;;;;;;0.50;0.50;;;25.30;99.90;;;;;;4876820;29;20734;-65
2023/09/13 09:13:33;;;;;;;0.60;0.60;;;26.50;99.90;;;;;;4868023;29;20324;-64
2023/09/13 09:16:01;;;;;;;0.50;0.50;;;25.60;99.90;;;;;;4875621;29;20229;-65
2023/09/13 09:18:30;;;;;;;0.50;0.50;;;25.20;99.90;;;;;;4875688;29;20385;-64
2023/09/13 09:20:58;;;;;;;0.40;0.40;;;24.60;99.90;;;;;;4889153;29;20225;-73
2023/09/13 09:23:28;;;;;;;0.70;0.70;;;24.50;99.90;;;;;;4873279;29;20613;-65
2023/09/13 09:25:55;;;;;;;0.47;0.47;;;25.00;99.90;;;;;;4889639;29;20201;-64
2023/09/13 09:28:27;;;;;;;0.52;0.52;;;27.00;99.90;;;;;;4874894;29;20281;-64
2023/09/13 09:30:54;;;;;;;1.60;1.55;;;28.90;99.90;;;;;;4870503;29;20228;-65
2023/09/13 09:33:27;;;;;;;0.70;0.70;;;30.40;99.90;;;;;;4873811;29;20269;-66
2023/09/13 09:35:57;;;;;;;0.50;0.50;;;31.40;99.90;;;;;;4872779;29;20565;-64
2023/09/13 09:38:27;;;;;;;0.70;0.70;;;32.20;99.90;;;;;;4871611;29;20683;-65
2023/09/13 09:41:00;;;;;;;0.60;0.60;;;29.60;99.90;;;;;;4873893;29;20304;-64
2023/09/13 09:43:28;;;;;;;0.60;0.60;;;28.10;99.90;;;;;;4886860;29;20229;-63
2023/09/13 09:45:55;;;;;;;0.60;0.60;;;28.90;99.90;;;;;;4873107;29;20212;-63
2023/09/13 09:48:23;;;;;;;0.60;0.60;;;27.40;99.90;;;;;;4855823;29;20208;-63
2023/09/13 09:50:52;;;;;;;0.70;0.70;;;26.80;99.90;;;;;;4872492;29;20210;-66
2023/09/13 09:53:21;;;;;;;0.70;0.70;;;27.50;99.90;;;;;;4887220;29;20257;-65
2023/09/13 09:55:52;;;;;;;0.60;0.60;;;27.60;99.90;;;;;;4873576;29;20197;-64
2023/09/13 09:58:21;;;;;;;0.60;0.60;;;28.90;99.90;;;;;;4871729;29;20774;-63
2023/09/13 10:00:52;;;;;;;0.63;0.63;;;28.40;99.90;;;;;;4872590;29;20629;-63
2023/09/13 10:03:22;;;;;;;0.70;0.70;;;28.70;99.90;;;;;;4868018;29;20194;-66
2023/09/13 10:05:59;;;;;;;0.70;0.70;;;31.00;99.90;;;;;;4869956;29;20261;-66
2023/09/13 10:08:47;;;;;;;3.22;1.70;;;31.30;99.90;;;;;;4874170;29;20734;-67
2023/09/13 10:11:19;;;;;;;0.70;0.70;;;30.00;99.90;;;;;;4888095;29;20203;-66
2023/09/13 10:13:46;;;;;;;0.80;0.80;;;28.00;99.90;;;;;;4870949;29;20237;-67
2023/09/13 10:16:16;;;;;;;0.77;0.77;;;30.40;99.90;;;;;;4873391;29;20293;-66
2023/09/13 10:18:44;;;;;;;0.70;0.70;;;31.50;99.90;;;;;;4874853;29;20292;-66
2023/09/13 10:21:14;;;;;;;0.80;0.80;;;30.10;99.90;;;;;;4873501;29;20227;-66
2023/09/13 10:23:45;;;;;;;0.70;0.70;;;31.20;99.90;;;;;;4877856;29;20591;-66
2023/09/13 10:26:15;;;;;;;0.70;0.70;;;31.50;99.90;;;;;;4867815;29;20205;-66
2023/09/13 10:28:45;;;;;;;0.70;0.70;;;29.10;99.90;;;;;;4871341;29;20274;-66
2023/09/13 10:31:18;;;;;;;0.70;0.70;;;26.00;99.90;;;;;;4865761;29;20205;-68
2023/09/13 10:33:51;;;;;;;0.70;0.70;;;23.60;99.90;;;;;;4878629;29;20206;-64
2023/09/13 10:36:36;;;;;;;0.50;0.50;;;22.50;99.90;;;;;;4869441;29;20229;-63
2023/09/13 10:39:11;;;;;;;0.43;0.43;;;21.90;99.90;;;;;;4874468;29;20290;-63
2023/09/13 10:41:48;;;;;;;0.40;0.40;;;21.70;99.90;;;;;;4874223;29;20220;-63
2023/09/13 10:44:15;;;;;;;0.40;0.40;;;21.30;99.90;;;;;;4879354;29;20439;-63
2023/09/13 10:46:43;;;;;;;0.40;0.40;;;21.10;99.90;;;;;;4871715;29;20285;-64
2023/09/13 10:49:13;;;;;;;0.30;0.30;;;21.20;99.90;;;;;;4875055;29;20200;-62
2023/09/13 10:51:43;;;;;;;0.40;0.40;;;21.20;99.90;;;;;;4882195;29;20877;-64
2023/09/13 10:54:12;;;;;;;0.40;0.40;;;21.10;99.90;;;;;;4873987;29;20274;-62
2023/09/13 10:56:40;;;;;;;0.30;0.30;;;20.80;99.90;;;;;;4872385;29;20671;-62
2023/09/13 10:59:09;;;;;;;0.30;0.30;;;20.80;99.90;;;;;;4868628;29;20556;-63
2023/09/13 11:01:38;;;;;;;0.40;0.40;;;20.70;99.90;;;;;;4892367;29;20221;-62
2023/09/13 11:04:05;;;;;;;0.30;0.30;;;20.70;99.90;;;;;;4876580;29;20563;-62
2023/09/13 11:06:33;;;;;;;0.30;0.30;;;20.90;99.90;;;;;;4870896;29;20214;-62
2023/09/13 11:09:18;;;;;;;0.30;0.30;;;21.10;99.90;;;;;;4870055;29;20697;-62
2023/09/13 11:11:51;;;;;;;0.40;0.40;;;21.10;99.90;;;;;;4864747;29;20344;-61
2023/09/13 11:14:36;;;;;;;0.40;0.40;;;21.60;99.90;;;;;;4887754;29;20288;-65
2023/09/13 11:17:37;;;;;;;0.50;0.50;;;21.90;99.90;;;;;;4870612;29;20202;-65
2023/09/13 11:20:27;;;;;;;0.50;0.50;;;22.10;99.90;;;;;;4841994;29;20236;-65
2023/09/13 11:23:10;;;;;;;0.40;0.40;;;21.60;99.90;;;;;;4870179;29;20584;-65
2023/09/13 11:25:50;;;;;;;0.52;0.52;;;21.60;99.90;;;;;;4874900;29;20265;-65
2023/09/13 11:28:37;;;;;;;0.50;0.50;;;22.30;99.90;;;;;;4857689;29;20202;-66
2023/09/13 11:31:07;;;;;;;0.50;0.50;;;22.60;99.90;;;;;;4867845;29;20210;-66
2023/09/13 11:33:43;;;;;;;0.60;0.60;;;23.10;99.90;;;;;;4866125;29;20264;-66
2023/09/13 11:36:16;;;;;;;0.50;0.50;;;23.20;99.90;;;;;;4862857;29;20210;-66
2023/09/13 11:38:44;;;;;;;0.50;0.50;;;23.90;99.90;;;;;;4876651;29;20281;-66
2023/09/13 11:41:20;;;;;;;0.60;0.60;;;24.10;99.90;;;;;;4866492;29;20816;-66
2023/09/13 11:43:51;;;;;;;0.60;0.60;;;24.40;99.90;;;;;;4877748;29;20201;-63
2023/09/13 11:46:21;;;;;;;0.60;0.60;;;24.90;99.90;;;;;;4870648;29;20189;-63
2023/09/13 11:48:51;;;;;;;0.73;0.73;;;25.60;99.90;;;;;;4855788;29;20247;-63
2023/09/13 11:51:32;;;;;;;0.70;0.70;;;25.90;99.90;;;;;;4878508;29;20737;-63
2023/09/13 11:54:14;;;;;;;0.70;0.70;;;25.80;99.90;;;;;;4859518;29;20249;-63
2023/09/13 11:56:45;;;;;;;0.80;0.80;;;25.90;99.90;;;;;;4856696;29;20683;-63
2023/09/13 11:59:16;;;;;;;0.80;0.80;;;26.80;99.90;;;;;;4871727;29;20217;-64
2023/09/13 12:01:48;;;;;;;0.80;0.80;;;27.10;99.90;;;;;;4878667;29;20744;-63
2023/09/13 12:04:22;;;;;;;0.90;0.90;;;27.00;99.90;;;;;;4859616;29;20285;-63
2023/09/13 12:07:09;;;;;;;0.80;0.80;;;25.80;99.90;;;;;;4865740;29;20214;-64
2023/09/13 12:09:39;;;;;;;0.80;0.80;;;25.50;99.90;;;;;;4857741;29;20202;-63
2023/09/13 12:12:10;;;;;;;0.80;0.80;;;25.70;99.90;;;;;;4845992;29;20220;-63
2023/09/13 12:14:41;;;;;;;0.77;0.77;;;26.60;99.90;;;;;;4874115;29;20241;-64
2023/09/13 12:17:11;;;;;;;0.90;0.90;;;26.40;99.90;;;;;;4858421;29;20266;-64
2023/09/13 12:19:38;;;;;;;0.80;0.80;;;25.70;99.90;;;;;;4876796;29;20726;-63
2023/09/13 12:22:05;;;;;;;0.80;0.80;;;24.40;99.90;;;;;;4874316;29;20217;-63
2023/09/13 12:24:32;;;;;;;0.80;0.80;;;23.80;99.90;;;;;;4857553;29;20612;-66
2023/09/13 12:26:59;;;;;;;0.80;0.80;;;23.40;99.90;;;;;;4879142;29;20201;-63
2023/09/13 12:29:26;;;;;;;0.80;0.80;;;23.20;99.90;;;;;;4860783;29;20261;-63
2023/09/13 12:31:57;;;;;;;0.80;0.80;;;23.30;99.90;;;;;;4872538;29;20699;-63
2023/09/13 12:34:25;;;;;;;4.25;4.00;;;23.20;99.90;;;;;;4857100;29;20641;-62
2023/09/13 12:36:55;;;;;;;0.80;0.80;;;23.20;99.90;;;;;;4874700;29;20194;-62
2023/09/13 12:39:22;;;;;;;0.80;0.80;;;23.10;99.90;;;;;;4871740;29;20674;-64
2023/09/13 12:41:49;;;;;;;0.80;0.80;;;23.30;99.90;;;;;;4875156;29;20216;-63
2023/09/13 12:44:18;;;;;;;0.80;0.80;;;23.30;99.90;;;;;;4873016;29;20194;-63
2023/09/13 12:46:45;;;;;;;0.63;0.63;;;23.20;99.90;;;;;;4865138;29;20213;-62
2023/09/13 12:49:12;;;;;;;0.80;0.80;;;22.80;99.90;;;;;;4849193;29;20651;-62
2023/09/13 12:51:40;;;;;;;0.90;0.90;;;22.80;99.90;;;;;;4866139;29;20570;-66
2023/09/13 12:54:12;;;;;;;0.70;0.70;;;22.80;99.90;;;;;;4875169;29;20209;-62
2023/09/13 12:56:40;;;;;;;0.80;0.80;;;23.30;99.90;;;;;;4871077;29;20278;-63
2023/09/13 12:59:09;;;;;;;0.80;0.80;;;23.50;99.90;;;;;;4874189;29;20647;-64
2023/09/13 13:01:36;;;;;;;0.80;0.80;;;24.00;99.90;;;;;;4878038;29;20304;-66
2023/09/13 13:04:08;;;;;;;0.80;0.80;;;24.50;99.90;;;;;;4876569;29;20311;-67
2023/09/13 13:07:22;;;;;;;0.85;0.85;;;24.60;99.90;;;;;;4860307;29;20547;-66
2023/09/13 13:09:52;;;;;;;0.80;0.80;;;24.60;99.90;;;;;;4875606;29;20261;-67